sensor_id;sensor_type;location;lat;lon;timestamp;pressure;altitude;pressure_sealevel;temperature;humidity
21877;BME280;11103;43.788;23.710;2022-09-03T00:02:00;69722.28;;;16.63;100.00
21877;BME280;11103;43.788;23.710;2022-09-03T00:04:38;68176.47;;;16.50;100.00
21877;BME280;11103;43.788;23.710;2022-09-03T00:07:14;65128.53;;;16.59;100.00
21877;BME280;11103;43.788;23.710;2022-09-03T00:09:45;64811.31;;;16.58;100.00
21877;BME280;11103;43.788;23.710;2022-09-03T00:12:23;64231.06;;;16.58;100.00
21877;BME280;11103;43.788;23.710;2022-09-03T00:14:54;62829.69;;;16.60;100.00
21877;BME280;11103;43.788;23.710;2022-09-03T00:17:29;62482.50;;;16.55;100.00
21877;BME280;11103;43.788;23.710;2022-09-03T00:22:39;61654.50;;;16.63;100.00
21877;BME280;11103;43.788;23.710;2022-09-03T00:25:09;63018.41;;;16.55;100.00
21877;BME280;11103;43.788;23.710;2022-09-03T00:27:40;64553.41;;;16.59;100.00
21877;BME280;11103;43.788;23.710;2022-09-03T00:30:12;66434.25;;;16.48;100.00
21877;BME280;11103;43.788;23.710;2022-09-03T00:33:03;68442.47;;;16.01;100.00
21877;BME280;11103;43.788;23.710;2022-09-03T00:35:46;69070.34;;;16.65;100.00
21877;BME280;11103;43.788;23.710;2022-09-03T00:38:14;68798.44;;;16.54;100.00
21877;BME280;11103;43.788;23.710;2022-09-03T00:46:48;71176.44;;;16.60;100.00
21877;BME280;11103;43.788;23.710;2022-09-03T00:52:17;71339.34;;;16.59;100.00
21877;BME280;11103;43.788;23.710;2022-09-03T01:00:40;71236.63;;;16.62;100.00
21877;BME280;11103;43.788;23.710;2022-09-03T01:03:16;71416.22;;;16.54;100.00
21877;BME280;11103;43.788;23.710;2022-09-03T01:08:57;71879.66;;;16.64;100.00
21877;BME280;11103;43.788;23.710;2022-09-03T01:14:36;71843.44;;;16.62;100.00
21877;BME280;11103;43.788;23.710;2022-09-03T01:17:11;70618.00;;;16.57;100.00
21877;BME280;11103;43.788;23.710;2022-09-03T01:25:22;62422.16;;;16.50;100.00
21877;BME280;11103;43.788;23.710;2022-09-03T01:31:12;57632.28;;;16.50;100.00
21877;BME280;11103;43.788;23.710;2022-09-03T01:36:33;55080.16;;;16.40;100.00
21877;BME280;11103;43.788;23.710;2022-09-03T01:39:05;54165.25;;;16.50;100.00
21877;BME280;11103;43.788;23.710;2022-09-03T01:58:30;47623.22;;;16.50;100.00
21877;BME280;11103;43.788;23.710;2022-09-03T02:01:06;47813.03;;;16.52;100.00
21877;BME280;11103;43.788;23.710;2022-09-03T02:03:37;47400.69;;;16.52;100.00
21877;BME280;11103;43.788;23.710;2022-09-03T02:06:07;46500.72;;;16.48;100.00
21877;BME280;11103;43.788;23.710;2022-09-03T02:08:34;43588.25;;;16.38;100.00
21877;BME280;11103;43.788;23.710;2022-09-03T02:11:00;42133.47;;;16.44;100.00
21877;BME280;11103;43.788;23.710;2022-09-03T02:13:39;41248.59;;;16.44;100.00
21877;BME280;11103;43.788;23.710;2022-09-03T02:16:17;40931.81;;;16.50;100.00
21877;BME280;11103;43.788;23.710;2022-09-03T02:18:49;39887.72;;;16.50;100.00
21877;BME280;11103;43.788;23.710;2022-09-03T02:21:20;39735.59;;;16.53;100.00
21877;BME280;11103;43.788;23.710;2022-09-03T02:23:48;40057.16;;;16.46;100.00
21877;BME280;11103;43.788;23.710;2022-09-03T02:26:15;39686.47;;;16.49;100.00
21877;BME280;11103;43.788;23.710;2022-09-03T02:28:44;38648.94;;;16.43;100.00
21877;BME280;11103;43.788;23.710;2022-09-03T02:31:09;39002.66;;;16.49;100.00
21877;BME280;11103;43.788;23.710;2022-09-03T02:33:38;39648.63;;;16.50;100.00
21877;BME280;11103;43.788;23.710;2022-09-03T02:36:10;39400.88;;;16.45;100.00
21877;BME280;11103;43.788;23.710;2022-09-03T02:38:36;39217.19;;;16.47;100.00
21877;BME280;11103;43.788;23.710;2022-09-03T02:41:01;38590.19;;;16.44;100.00
21877;BME280;11103;43.788;23.710;2022-09-03T02:46:28;38463.56;;;16.43;100.00
21877;BME280;11103;43.788;23.710;2022-09-03T02:48:57;38125.34;;;16.52;100.00
21877;BME280;11103;43.788;23.710;2022-09-03T02:51:22;38186.34;;;16.51;100.00
21877;BME280;11103;43.788;23.710;2022-09-03T02:53:48;37263.19;;;16.50;100.00
21877;BME280;11103;43.788;23.710;2022-09-03T02:56:13;37125.44;;;16.51;100.00
21877;BME280;11103;43.788;23.710;2022-09-03T02:58:38;37317.06;;;16.34;100.00
21877;BME280;11103;43.788;23.710;2022-09-03T03:01:05;38123.66;;;16.42;100.00
21877;BME280;11103;43.788;23.710;2022-09-03T03:03:31;38064.38;;;16.45;100.00
21877;BME280;11103;43.788;23.710;2022-09-03T03:05:59;37913.31;;;16.42;100.00
21877;BME280;11103;43.788;23.710;2022-09-03T03:08:27;38762.41;;;16.51;100.00
21877;BME280;11103;43.788;23.710;2022-09-03T03:10:57;39898.31;;;16.54;100.00
21877;BME280;11103;43.788;23.710;2022-09-03T03:13:26;40766.13;;;16.49;100.00
21877;BME280;11103;43.788;23.710;2022-09-03T03:15:55;41730.34;;;16.48;100.00
21877;BME280;11103;43.788;23.710;2022-09-03T03:18:21;41635.22;;;16.59;100.00
21877;BME280;11103;43.788;23.710;2022-09-03T03:20:47;40953.47;;;16.59;100.00
21877;BME280;11103;43.788;23.710;2022-09-03T03:23:12;41579.34;;;16.56;100.00
21877;BME280;11103;43.788;23.710;2022-09-03T03:25:38;42085.56;;;16.62;100.00
21877;BME280;11103;43.788;23.710;2022-09-03T03:28:06;42187.75;;;16.61;100.00
21877;BME280;11103;43.788;23.710;2022-09-03T03:30:33;42702.91;;;16.48;100.00
21877;BME280;11103;43.788;23.710;2022-09-03T03:32:59;42645.53;;;16.47;100.00
21877;BME280;11103;43.788;23.710;2022-09-03T03:35:25;42346.13;;;16.56;100.00
21877;BME280;11103;43.788;23.710;2022-09-03T03:37:51;42831.66;;;16.65;100.00
21877;BME280;11103;43.788;23.710;2022-09-03T03:40:17;43384.13;;;16.57;100.00
21877;BME280;11103;43.788;23.710;2022-09-03T03:42:42;43708.13;;;16.67;100.00
21877;BME280;11103;43.788;23.710;2022-09-03T03:45:08;43465.88;;;16.60;100.00
21877;BME280;11103;43.788;23.710;2022-09-03T03:47:35;43365.94;;;16.64;100.00
21877;BME280;11103;43.788;23.710;2022-09-03T03:50:01;43987.63;;;16.65;100.00
21877;BME280;11103;43.788;23.710;2022-09-03T03:52:27;44075.66;;;16.59;100.00
21877;BME280;11103;43.788;23.710;2022-09-03T03:54:53;44214.03;;;16.69;100.00
21877;BME280;11103;43.788;23.710;2022-09-03T03:57:19;44032.91;;;16.57;100.00
21877;BME280;11103;43.788;23.710;2022-09-03T03:59:46;43592.50;;;16.74;100.00
21877;BME280;11103;43.788;23.710;2022-09-03T04:02:12;42517.13;;;16.79;100.00
21877;BME280;11103;43.788;23.710;2022-09-03T04:04:38;43579.25;;;16.74;100.00
21877;BME280;11103;43.788;23.710;2022-09-03T04:07:04;44066.28;;;16.81;100.00
21877;BME280;11103;43.788;23.710;2022-09-03T04:09:29;45603.13;;;16.79;100.00
21877;BME280;11103;43.788;23.710;2022-09-03T04:11:55;45234.09;;;16.82;100.00
21877;BME280;11103;43.788;23.710;2022-09-03T04:14:24;45070.16;;;16.80;100.00
21877;BME280;11103;43.788;23.710;2022-09-03T04:16:50;44870.78;;;16.82;100.00
21877;BME280;11103;43.788;23.710;2022-09-03T04:19:16;44551.34;;;16.82;100.00
21877;BME280;11103;43.788;23.710;2022-09-03T04:21:42;44081.03;;;16.90;100.00
21877;BME280;11103;43.788;23.710;2022-09-03T04:24:08;44266.56;;;16.83;100.00
21877;BME280;11103;43.788;23.710;2022-09-03T04:26:34;43248.16;;;16.85;100.00
21877;BME280;11103;43.788;23.710;2022-09-03T04:29:06;44353.66;;;16.96;100.00
21877;BME280;11103;43.788;23.710;2022-09-03T04:31:33;44296.59;;;16.95;100.00
21877;BME280;11103;43.788;23.710;2022-09-03T04:33:59;44404.22;;;16.91;100.00
21877;BME280;11103;43.788;23.710;2022-09-03T04:36:27;44399.81;;;16.99;100.00
21877;BME280;11103;43.788;23.710;2022-09-03T04:38:54;43277.03;;;17.03;100.00
21877;BME280;11103;43.788;23.710;2022-09-03T04:41:23;41672.91;;;17.00;100.00
21877;BME280;11103;43.788;23.710;2022-09-03T04:43:53;41149.50;;;17.13;100.00
21877;BME280;11103;43.788;23.710;2022-09-03T04:46:21;40772.13;;;17.14;100.00
21877;BME280;11103;43.788;23.710;2022-09-03T04:48:49;41187.03;;;17.11;100.00
21877;BME280;11103;43.788;23.710;2022-09-03T04:51:17;41644.28;;;17.20;100.00
21877;BME280;11103;43.788;23.710;2022-09-03T04:53:45;43584.09;;;17.27;100.00
21877;BME280;11103;43.788;23.710;2022-09-03T04:56:22;45369.63;;;17.29;100.00
21877;BME280;11103;43.788;23.710;2022-09-03T04:58:52;46183.13;;;17.34;100.00
21877;BME280;11103;43.788;23.710;2022-09-03T05:01:20;47705.75;;;17.37;100.00
21877;BME280;11103;43.788;23.710;2022-09-03T05:03:46;49184.91;;;17.40;100.00
21877;BME280;11103;43.788;23.710;2022-09-03T05:06:13;50588.19;;;17.41;100.00
21877;BME280;11103;43.788;23.710;2022-09-03T05:08:41;52144.56;;;17.42;100.00
21877;BME280;11103;43.788;23.710;2022-09-03T05:11:10;53498.41;;;17.33;100.00
21877;BME280;11103;43.788;23.710;2022-09-03T05:13:37;54542.28;;;17.35;100.00
21877;BME280;11103;43.788;23.710;2022-09-03T05:16:05;57071.94;;;17.45;100.00
21877;BME280;11103;43.788;23.710;2022-09-03T05:18:31;57338.53;;;17.45;100.00
21877;BME280;11103;43.788;23.710;2022-09-03T05:21:02;56329.50;;;17.48;100.00
21877;BME280;11103;43.788;23.710;2022-09-03T05:23:28;56718.22;;;17.49;100.00
21877;BME280;11103;43.788;23.710;2022-09-03T05:26:00;57624.72;;;17.49;100.00
21877;BME280;11103;43.788;23.710;2022-09-03T05:28:27;59264.97;;;17.48;100.00
21877;BME280;11103;43.788;23.710;2022-09-03T05:31:02;60835.16;;;17.33;100.00
21877;BME280;11103;43.788;23.710;2022-09-03T05:33:28;61919.59;;;17.42;100.00
21877;BME280;11103;43.788;23.710;2022-09-03T05:35:59;61434.13;;;17.31;100.00
21877;BME280;11103;43.788;23.710;2022-09-03T05:38:25;62359.25;;;17.31;100.00
21877;BME280;11103;43.788;23.710;2022-09-03T05:40:50;63461.72;;;17.27;100.00
21877;BME280;11103;43.788;23.710;2022-09-03T05:43:16;63100.75;;;17.43;100.00
21877;BME280;11103;43.788;23.710;2022-09-03T05:45:41;62971.94;;;17.39;100.00
21877;BME280;11103;43.788;23.710;2022-09-03T05:48:07;63521.31;;;17.51;100.00
21877;BME280;11103;43.788;23.710;2022-09-03T05:50:32;64823.41;;;17.44;100.00
21877;BME280;11103;43.788;23.710;2022-09-03T05:52:58;65438.41;;;17.55;100.00
21877;BME280;11103;43.788;23.710;2022-09-03T05:55:24;66072.25;;;17.51;100.00
21877;BME280;11103;43.788;23.710;2022-09-03T05:57:52;65939.06;;;17.48;100.00
21877;BME280;11103;43.788;23.710;2022-09-03T06:00:18;65962.88;;;17.62;100.00
21877;BME280;11103;43.788;23.710;2022-09-03T06:02:52;65802.75;;;17.65;100.00
21877;BME280;11103;43.788;23.710;2022-09-03T06:05:18;67772.25;;;17.55;100.00
21877;BME280;11103;43.788;23.710;2022-09-03T06:07:44;73220.75;;;17.62;100.00
21877;BME280;11103;43.788;23.710;2022-09-03T06:10:14;75315.50;;;17.44;100.00
21877;BME280;11103;43.788;23.710;2022-09-03T06:12:42;73492.72;;;17.59;100.00
21877;BME280;11103;43.788;23.710;2022-09-03T06:15:15;77862.06;;;17.60;100.00
21877;BME280;11103;43.788;23.710;2022-09-03T06:17:40;82166.97;;;17.52;100.00
21877;BME280;11103;43.788;23.710;2022-09-03T06:20:06;83257.44;;;17.54;100.00
21877;BME280;11103;43.788;23.710;2022-09-03T06:22:32;85613.88;;;17.51;100.00
21877;BME280;11103;43.788;23.710;2022-09-03T06:24:57;85695.78;;;17.37;100.00
21877;BME280;11103;43.788;23.710;2022-09-03T06:27:23;84565.69;;;17.44;100.00
21877;BME280;11103;43.788;23.710;2022-09-03T06:29:48;81400.97;;;17.45;100.00
21877;BME280;11103;43.788;23.710;2022-09-03T06:32:14;82830.75;;;17.42;100.00
21877;BME280;11103;43.788;23.710;2022-09-03T06:34:39;83131.16;;;17.41;100.00
21877;BME280;11103;43.788;23.710;2022-09-03T06:37:05;82696.81;;;17.45;100.00
21877;BME280;11103;43.788;23.710;2022-09-03T06:39:30;84360.75;;;17.52;100.00
21877;BME280;11103;43.788;23.710;2022-09-03T06:41:55;81454.91;;;17.50;100.00
21877;BME280;11103;43.788;23.710;2022-09-03T06:44:21;84616.81;;;17.54;100.00
21877;BME280;11103;43.788;23.710;2022-09-03T06:46:46;86438.13;;;17.43;100.00
21877;BME280;11103;43.788;23.710;2022-09-03T06:49:13;87465.91;;;17.58;100.00
21877;BME280;11103;43.788;23.710;2022-09-03T06:51:39;88057.50;;;17.64;100.00
21877;BME280;11103;43.788;23.710;2022-09-03T06:54:06;88471.19;;;17.68;100.00
21877;BME280;11103;43.788;23.710;2022-09-03T06:56:34;87160.38;;;17.72;100.00
21877;BME280;11103;43.788;23.710;2022-09-03T06:59:06;85649.16;;;17.78;100.00
21877;BME280;11103;43.788;23.710;2022-09-03T07:01:33;87205.22;;;17.81;100.00
21877;BME280;11103;43.788;23.710;2022-09-03T07:04:00;85990.06;;;17.87;100.00
21877;BME280;11103;43.788;23.710;2022-09-03T07:06:29;85071.97;;;17.95;100.00
21877;BME280;11103;43.788;23.710;2022-09-03T07:08:54;82489.69;;;18.04;100.00
21877;BME280;11103;43.788;23.710;2022-09-03T07:11:23;89286.16;;;17.96;100.00
21877;BME280;11103;43.788;23.710;2022-09-03T07:13:51;92241.34;;;18.02;100.00
21877;BME280;11103;43.788;23.710;2022-09-03T07:16:32;102270.94;;;17.84;100.00
21877;BME280;11103;43.788;23.710;2022-09-03T07:18:58;96183.88;;;17.81;100.00
21877;BME280;11103;43.788;23.710;2022-09-03T07:21:27;89343.88;;;17.91;100.00
21877;BME280;11103;43.788;23.710;2022-09-03T07:23:54;90574.88;;;17.90;100.00
21877;BME280;11103;43.788;23.710;2022-09-03T07:26:30;96714.63;;;17.54;100.00
21877;BME280;11103;43.788;23.710;2022-09-03T07:28:56;94325.69;;;18.07;100.00
21877;BME280;11103;43.788;23.710;2022-09-03T07:31:33;94471.56;;;18.13;100.00
21877;BME280;11103;43.788;23.710;2022-09-03T07:34:04;98205.69;;;18.12;100.00
21877;BME280;11103;43.788;23.710;2022-09-03T07:36:33;99339.66;;;18.11;100.00
21877;BME280;11103;43.788;23.710;2022-09-03T07:38:59;102174.72;;;18.06;100.00
21877;BME280;11103;43.788;23.710;2022-09-03T07:41:26;101465.28;;;17.95;100.00
21877;BME280;11103;43.788;23.710;2022-09-03T07:43:52;97973.84;;;18.02;100.00
21877;BME280;11103;43.788;23.710;2022-09-03T07:46:23;102788.03;;;17.92;100.00
21877;BME280;11103;43.788;23.710;2022-09-03T07:48:51;98463.13;;;17.91;100.00
21877;BME280;11103;43.788;23.710;2022-09-03T07:51:18;95626.91;;;17.72;100.00
21877;BME280;11103;43.788;23.710;2022-09-03T07:53:45;93555.59;;;17.89;100.00
21877;BME280;11103;43.788;23.710;2022-09-03T07:56:13;95683.47;;;17.99;100.00
21877;BME280;11103;43.788;23.710;2022-09-03T07:58:40;95392.88;;;17.90;100.00
21877;BME280;11103;43.788;23.710;2022-09-03T08:01:11;94725.53;;;18.00;100.00
21877;BME280;11103;43.788;23.710;2022-09-03T08:03:42;99773.78;;;17.78;100.00
21877;BME280;11103;43.788;23.710;2022-09-03T08:06:08;101206.66;;;17.77;100.00
21877;BME280;11103;43.788;23.710;2022-09-03T08:08:35;101612.47;;;17.67;100.00
21877;BME280;11103;43.788;23.710;2022-09-03T08:11:06;94222.34;;;17.68;100.00
21877;BME280;11103;43.788;23.710;2022-09-03T08:13:34;86497.00;;;17.51;100.00
21877;BME280;11103;43.788;23.710;2022-09-03T08:15:59;81468.63;;;17.90;100.00
21877;BME280;11103;43.788;23.710;2022-09-03T08:18:26;84597.53;;;17.82;100.00
21877;BME280;11103;43.788;23.710;2022-09-03T08:20:59;87489.84;;;18.01;100.00
21877;BME280;11103;43.788;23.710;2022-09-03T08:23:25;84880.44;;;18.10;100.00
21877;BME280;11103;43.788;23.710;2022-09-03T08:26:00;87200.50;;;18.08;100.00
21877;BME280;11103;43.788;23.710;2022-09-03T08:28:26;92174.97;;;18.13;100.00
21877;BME280;11103;43.788;23.710;2022-09-03T08:30:52;91468.22;;;18.13;100.00
21877;BME280;11103;43.788;23.710;2022-09-03T08:33:17;91269.50;;;18.31;100.00
21877;BME280;11103;43.788;23.710;2022-09-03T08:36:06;91143.22;;;18.44;100.00
21877;BME280;11103;43.788;23.710;2022-09-03T08:38:33;96163.03;;;18.52;100.00
21877;BME280;11103;43.788;23.710;2022-09-03T08:41:16;101651.97;;;18.48;100.00
21877;BME280;11103;43.788;23.710;2022-09-03T08:46:53;108093.00;;;18.68;100.00
21877;BME280;11103;43.788;23.710;2022-09-03T08:49:33;102987.78;;;18.85;100.00
21877;BME280;11103;43.788;23.710;2022-09-03T08:52:02;114016.47;;;18.93;100.00
21877;BME280;11103;43.788;23.710;2022-09-03T08:54:31;117124.13;;;18.93;100.00
21877;BME280;11103;43.788;23.710;2022-09-03T08:57:01;121642.19;;;19.18;100.00
21877;BME280;11103;43.788;23.710;2022-09-03T08:59:29;122424.19;;;19.10;100.00
21877;BME280;11103;43.788;23.710;2022-09-03T09:07:33;130141.38;;;19.24;100.00
21877;BME280;11103;43.788;23.710;2022-09-03T09:10:21;133378.75;;;19.30;100.00
21877;BME280;11103;43.788;23.710;2022-09-03T09:21:10;138399.59;;;19.12;100.00
21877;BME280;11103;43.788;23.710;2022-09-03T09:23:47;135081.59;;;19.23;100.00
21877;BME280;11103;43.788;23.710;2022-09-03T09:26:19;136539.50;;;19.39;100.00
21877;BME280;11103;43.788;23.710;2022-09-03T09:28:54;141979.03;;;19.50;100.00
21877;BME280;11103;43.788;23.710;2022-09-03T09:31:22;147170.44;;;19.51;100.00
21877;BME280;11103;43.788;23.710;2022-09-03T09:33:48;149518.22;;;19.82;100.00
21877;BME280;11103;43.788;23.710;2022-09-03T09:36:16;151153.69;;;19.87;100.00
21877;BME280;11103;43.788;23.710;2022-09-03T09:38:44;151439.78;;;19.97;100.00
21877;BME280;11103;43.788;23.710;2022-09-03T09:41:18;151504.25;;;20.23;100.00
21877;BME280;11103;43.788;23.710;2022-09-03T09:43:45;151540.44;;;20.37;100.00
21877;BME280;11103;43.788;23.710;2022-09-03T09:46:13;151550.78;;;20.41;100.00
21877;BME280;11103;43.788;23.710;2022-09-03T09:51:30;151593.31;;;20.57;100.00
21877;BME280;11103;43.788;23.710;2022-09-03T09:54:16;151602.38;;;20.61;100.00
21877;BME280;11103;43.788;23.710;2022-09-03T09:56:44;151592.06;;;20.57;100.00
21877;BME280;11103;43.788;23.710;2022-09-03T09:59:13;151626.91;;;20.70;100.00
21877;BME280;11103;43.788;23.710;2022-09-03T10:01:41;151634.66;;;20.73;100.00
21877;BME280;11103;43.788;23.710;2022-09-03T10:04:22;151688.88;;;20.95;100.00
21877;BME280;11103;43.788;23.710;2022-09-03T10:06:55;151679.81;;;20.91;100.00
21877;BME280;11103;43.788;23.710;2022-09-03T10:09:25;151687.56;;;20.94;100.00
21877;BME280;11103;43.788;23.710;2022-09-03T10:12:07;151700.47;;;20.99;100.00
21877;BME280;11103;43.788;23.710;2022-09-03T10:20:18;151641.13;;;20.76;100.00
21877;BME280;11103;43.788;23.710;2022-09-03T10:23:08;151655.31;;;20.82;100.00
21877;BME280;11103;43.788;23.710;2022-09-03T10:28:05;151664.31;;;20.85;100.00
21877;BME280;11103;43.788;23.710;2022-09-03T10:30:51;151715.97;;;21.05;100.00
21877;BME280;11103;43.788;23.710;2022-09-03T10:33:26;151734.06;;;21.12;100.00
21877;BME280;11103;43.788;23.710;2022-09-03T10:38:50;151814.16;;;21.44;100.00
21877;BME280;11103;43.788;23.710;2022-09-03T10:41:40;151855.47;;;21.60;100.00
21877;BME280;11103;43.788;23.710;2022-09-03T10:45:14;151832.22;;;21.51;100.00
21877;BME280;11103;43.788;23.710;2022-09-03T10:50:28;151885.22;;;21.71;100.00
21877;BME280;11103;43.788;23.710;2022-09-03T11:01:22;151930.44;;;21.89;100.00
21877;BME280;11103;43.788;23.710;2022-09-03T11:06:42;151976.94;;;22.07;100.00
21877;BME280;11103;43.788;23.710;2022-09-03T11:09:40;152007.97;;;22.19;100.00
21877;BME280;11103;43.788;23.710;2022-09-03T11:12:09;152050.63;;;22.36;100.00
21877;BME280;11103;43.788;23.710;2022-09-03T11:14:43;152080.34;;;22.47;100.00
21877;BME280;11103;43.788;23.710;2022-09-03T11:17:19;152115.25;;;22.61;100.00
21877;BME280;11103;43.788;23.710;2022-09-03T11:19:54;152168.28;;;22.82;100.00
21877;BME280;11103;43.788;23.710;2022-09-03T11:22:23;152245.88;;;23.12;100.00
21877;BME280;11103;43.788;23.710;2022-09-03T11:24:56;152300.19;;;23.33;100.00
21877;BME280;11103;43.788;23.710;2022-09-03T11:30:05;152295.00;;;23.31;100.00
21877;BME280;11103;43.788;23.710;2022-09-03T11:32:42;152309.25;;;23.37;100.00
21877;BME280;11103;43.788;23.710;2022-09-03T11:35:26;152307.94;;;23.36;100.00
21877;BME280;11103;43.788;23.710;2022-09-03T11:38:03;152275.63;;;23.24;100.00
21877;BME280;11103;43.788;23.710;2022-09-03T11:40:55;152221.28;;;23.02;100.00
21877;BME280;11103;43.788;23.710;2022-09-03T11:45:48;152245.88;;;23.12;100.00
21877;BME280;11103;43.788;23.710;2022-09-03T11:48:42;152168.28;;;22.82;100.00
21877;BME280;11103;43.788;23.710;2022-09-03T11:54:23;152106.19;;;22.58;100.00
21877;BME280;11103;43.788;23.710;2022-09-03T11:56:50;152113.97;;;22.61;100.00
21877;BME280;11103;43.788;23.710;2022-09-03T11:59:23;152103.59;;;22.57;100.00
21877;BME280;11103;43.788;23.710;2022-09-03T12:01:52;152147.59;;;22.74;100.00
21877;BME280;11103;43.788;23.710;2022-09-03T12:04:34;152265.25;;;23.20;100.00
21877;BME280;11103;43.788;23.710;2022-09-03T12:10:42;152367.47;;;23.59;100.00
21877;BME280;11103;43.788;23.710;2022-09-03T12:18:28;152282.09;;;23.26;100.00
21877;BME280;11103;43.788;23.710;2022-09-03T12:23:33;152275.63;;;23.24;100.00
21877;BME280;11103;43.788;23.710;2022-09-03T12:26:04;152284.63;;;23.27;100.00
21877;BME280;11103;43.788;23.710;2022-09-03T12:28:30;152248.44;;;23.13;100.00
21877;BME280;11103;43.788;23.710;2022-09-03T12:31:17;152176.06;;;22.85;100.00
21877;BME280;11103;43.788;23.710;2022-09-03T12:34:11;152134.69;;;22.69;100.00
21877;BME280;11103;43.788;23.710;2022-09-03T12:36:38;152120.47;;;22.63;100.00
21877;BME280;11103;43.788;23.710;2022-09-03T12:39:13;152088.06;;;22.50;100.00
21877;BME280;11103;43.788;23.710;2022-09-03T12:44:28;152159.22;;;22.78;100.00
21877;BME280;11103;43.788;23.710;2022-09-03T12:47:05;152284.63;;;23.27;100.00
21877;BME280;11103;43.788;23.710;2022-09-03T12:49:39;152432.16;;;23.85;100.00
21877;BME280;11103;43.788;23.710;2022-09-03T12:55:03;152584.91;;;24.44;100.00
21877;BME280;11103;43.788;23.710;2022-09-03T12:58:37;152652.25;;;24.70;100.00
21877;BME280;11103;43.788;23.710;2022-09-03T13:00:40;152687.22;;;24.84;100.00
21877;BME280;11103;43.788;23.710;2022-09-03T13:03:32;152667.75;;;24.76;100.00
21877;BME280;11103;43.788;23.710;2022-09-03T13:05:58;152792.09;;;25.25;100.00
21877;BME280;11103;43.788;23.710;2022-09-03T13:08:31;152793.41;;;25.25;100.00
21877;BME280;11103;43.788;23.710;2022-09-03T13:11:00;152802.50;;;25.29;100.00
21877;BME280;11103;43.788;23.710;2022-09-03T13:13:34;152726.09;;;24.99;100.00
21877;BME280;11103;43.788;23.710;2022-09-03T13:21:48;152525.41;;;24.21;100.00
21877;BME280;11103;43.788;23.710;2022-09-03T13:24:59;152470.97;;;24.00;100.00
21877;BME280;11103;43.788;23.710;2022-09-03T13:30:19;152614.69;;;24.56;100.00
21877;BME280;11103;43.788;23.710;2022-09-03T13:32:49;152595.28;;;24.48;100.00
21877;BME280;11103;43.788;23.710;2022-09-03T13:37:55;152657.41;;;24.72;100.00
21877;BME280;11103;43.788;23.710;2022-09-03T13:40:35;152771.38;;;25.17;100.00
21877;BME280;11103;43.788;23.710;2022-09-03T13:45:55;152897.06;;;25.66;100.00
21877;BME280;11103;43.788;23.710;2022-09-03T13:48:33;152882.81;;;25.60;100.00
21877;BME280;11103;43.788;23.710;2022-09-03T13:51:56;153018.94;;;26.13;100.00
21877;BME280;11103;43.788;23.710;2022-09-03T13:54:24;152994.28;;;26.03;99.37
21877;BME280;11103;43.788;23.710;2022-09-03T13:57:23;153038.38;;;26.21;96.49
21877;BME280;11103;43.788;23.710;2022-09-03T14:03:02;153098.03;;;26.44;100.00
21877;BME280;11103;43.788;23.710;2022-09-03T14:19:55;153282.16;;;27.15;86.02
21877;BME280;11103;43.788;23.710;2022-09-03T14:25:09;153276.97;;;27.13;93.60
21877;BME280;11103;43.788;23.710;2022-09-03T14:27:36;153269.19;;;27.10;87.64
21877;BME280;11103;43.788;23.710;2022-09-03T14:30:05;153278.28;;;27.14;90.65
21877;BME280;11103;43.788;23.710;2022-09-03T14:32:48;153356.16;;;27.44;94.75
21877;BME280;11103;43.788;23.710;2022-09-03T14:38:17;153409.34;;;27.65;88.24
21877;BME280;11103;43.788;23.710;2022-09-03T14:41:05;153297.72;;;27.22;86.51
21877;BME280;11103;43.788;23.710;2022-09-03T15:00:01;153462.56;;;27.86;81.77
21877;BME280;11103;43.788;23.710;2022-09-03T15:05:17;153406.78;;;27.64;80.33
21877;BME280;11103;43.788;23.710;2022-09-03T15:07:55;153353.56;;;27.43;83.78
21877;BME280;11103;43.788;23.710;2022-09-03T15:10:42;153322.41;;;27.31;83.49
21877;BME280;11103;43.788;23.710;2022-09-03T15:36:40;152243.25;;;23.11;100.00
21877;BME280;11103;43.788;23.710;2022-09-03T15:39:34;152147.59;;;22.74;100.00
21877;BME280;11103;43.788;23.710;2022-09-03T15:42:20;152002.81;;;22.17;100.00
21877;BME280;11103;43.788;23.710;2022-09-03T15:44:55;152028.66;;;22.27;100.00
21877;BME280;11103;43.788;23.710;2022-09-03T15:47:53;151998.91;;;22.16;100.00
21877;BME280;11103;43.788;23.710;2022-09-03T15:50:33;151956.28;;;21.99;100.00
21877;BME280;11103;43.788;23.710;2022-09-03T15:55:36;151843.81;;;21.55;100.00
21877;BME280;11103;43.788;23.710;2022-09-03T15:58:29;151824.47;;;21.48;100.00
21877;BME280;11103;43.788;23.710;2022-09-03T16:01:03;151775.41;;;21.28;100.00
21877;BME280;11103;43.788;23.710;2022-09-03T16:03:40;151746.97;;;21.17;100.00
21877;BME280;11103;43.788;23.710;2022-09-03T16:06:35;151780.59;;;21.30;100.00
21877;BME280;11103;43.788;23.710;2022-09-03T16:12:13;151752.19;;;21.19;100.00
21877;BME280;11103;43.788;23.710;2022-09-03T16:14:51;151681.13;;;20.92;100.00
21877;BME280;11103;43.788;23.710;2022-09-03T16:17:41;151656.56;;;20.82;100.00
21877;BME280;11103;43.788;23.710;2022-09-03T16:20:22;151643.66;;;20.77;100.00
21877;BME280;11103;43.788;23.710;2022-09-03T16:23:06;151607.53;;;20.63;100.00
21877;BME280;11103;43.788;23.710;2022-09-03T16:25:51;151404.94;;;19.84;100.00
21877;BME280;11103;43.788;23.710;2022-09-03T16:28:31;151002.31;;;20.34;100.00
21877;BME280;11103;43.788;23.710;2022-09-03T16:31:21;150414.22;;;20.26;100.00